createdAt,value
2019-01-13T00:00:11.663Z,44.54
2019-01-13T00:01:07.525Z,45.34
2019-01-13T00:02:06.495Z,45.34
2019-01-13T00:03:06.490Z,44.95
2019-01-13T00:04:06.484Z,45.17
2019-01-13T00:05:06.474Z,45.26
2019-01-13T00:06:06.472Z,45.57
2019-01-13T00:07:06.452Z,45.67
2019-01-13T00:08:06.443Z,45.77
2019-01-13T00:09:06.426Z,45.57
2019-01-13T00:10:06.419Z,45.37
2019-01-13T00:11:06.451Z,46.47
2019-01-13T00:12:06.396Z,45.57
2019-01-13T00:13:06.392Z,46.65
2019-01-13T00:14:06.379Z,45.95
2019-01-13T00:15:06.372Z,44.42
2019-01-13T00:16:06.370Z,44.30
2019-01-13T00:17:06.346Z,43.58
2019-01-13T00:18:06.334Z,43.46
2019-01-13T00:19:06.331Z,43.04
2019-01-13T00:20:06.311Z,42.21
2019-01-13T00:21:06.314Z,40.99
2019-01-13T00:22:06.296Z,41.39
2019-01-13T00:23:06.283Z,41.49
2019-01-13T00:24:06.269Z,41.69
2019-01-13T00:25:06.259Z,41.09
2019-01-13T00:26:06.263Z,41.39
2019-01-13T00:27:06.240Z,41.47
2019-01-13T00:28:06.231Z,40.58
2019-01-13T00:29:06.222Z,40.56
2019-01-13T00:30:06.206Z,40.25
2019-01-13T00:31:06.212Z,39.64
2019-01-13T00:32:06.186Z,40.04
2019-01-13T00:33:06.177Z,39.54
2019-01-13T00:34:06.167Z,39.94
2019-01-13T00:35:06.154Z,39.82
2019-01-13T00:36:06.157Z,40.12
2019-01-13T00:37:06.134Z,40.22
2019-01-13T00:38:06.118Z,40.01
2019-01-13T00:39:06.123Z,40.01
2019-01-13T00:40:06.099Z,39.34
2019-01-13T00:41:06.096Z,39.24
2019-01-13T00:42:06.078Z,39.54
2019-01-13T00:43:06.066Z,39.34
2019-01-13T00:44:06.057Z,39.84
2019-01-13T00:45:06.045Z,39.64
2019-01-13T00:46:06.073Z,40.04
2019-01-13T00:47:06.020Z,39.84
2019-01-13T00:48:06.016Z,39.42
2019-01-13T00:49:06.008Z,39.22
2019-01-13T00:50:06.010Z,39.00
2019-01-13T00:51:06.007Z,38.20
2019-01-13T00:52:05.978Z,38.20
2019-01-13T00:53:05.964Z,38.40
2019-01-13T00:54:05.953Z,38.60
2019-01-13T00:55:05.947Z,38.48
2019-01-13T00:56:05.956Z,38.89
2019-01-13T00:57:05.926Z,37.59
2019-01-13T00:58:05.919Z,37.88
2019-01-13T00:59:05.902Z,38.18
2019-01-13T01:00:05.889Z,38.18
2019-01-13T01:01:05.912Z,37.49
2019-01-13T01:02:05.873Z,38.09
2019-01-13T01:03:05.868Z,37.68
2019-01-13T01:04:05.849Z,37.79
2019-01-13T01:05:05.836Z,38.70
2019-01-13T01:06:05.827Z,37.90
2019-01-13T01:07:05.836Z,38.50
2019-01-13T01:08:05.803Z,38.60
2019-01-13T01:09:05.815Z,38.70
2019-01-13T01:10:05.782Z,38.40
2019-01-13T01:11:05.781Z,38.62
2019-01-13T01:12:05.773Z,38.12
2019-01-13T01:13:05.753Z,38.22
2019-01-13T01:14:05.741Z,38.82
2019-01-13T01:15:05.731Z,38.94
2019-01-13T01:16:05.723Z,39.24
2019-01-13T01:17:05.723Z,39.43
2019-01-13T01:18:05.703Z,39.34
2019-01-13T01:19:05.686Z,40.16
2019-01-13T01:20:05.693Z,39.65
2019-01-13T01:21:05.672Z,39.87
2019-01-13T01:22:05.858Z,39.87
2019-01-13T01:23:05.658Z,40.17
2019-01-13T01:24:05.625Z,40.67
2019-01-13T01:25:05.621Z,40.08
2019-01-13T01:26:05.618Z,40.17
2019-01-13T01:27:05.624Z,41.09
2019-01-13T01:28:05.642Z,41.09
2019-01-13T01:29:05.605Z,40.80
2019-01-13T01:30:05.565Z,40.89
2019-01-13T01:31:05.570Z,40.59
2019-01-13T01:32:05.563Z,40.41
2019-01-13T01:33:05.539Z,40.81
2019-01-13T01:34:05.525Z,41.61
2019-01-13T01:35:05.511Z,40.71
2019-01-13T01:36:05.503Z,41.41
2019-01-13T01:37:05.504Z,40.41
2019-01-13T01:38:05.483Z,41.11
2019-01-13T01:39:05.469Z,41.11
2019-01-13T01:40:05.455Z,41.43
2019-01-13T01:41:05.452Z,41.43
2019-01-13T01:42:05.447Z,40.83
2019-01-13T01:43:05.436Z,41.74
2019-01-13T01:44:05.418Z,40.85
2019-01-13T01:45:05.408Z,41.03
2019-01-13T01:46:05.392Z,41.35
2019-01-13T01:47:05.402Z,41.46
2019-01-13T01:48:05.374Z,42.16
2019-01-13T01:49:05.362Z,41.46
2019-01-13T01:50:05.354Z,41.46
2019-01-13T01:51:05.346Z,41.55
2019-01-13T01:52:05.361Z,42.16
2019-01-13T01:53:05.368Z,42.05
2019-01-13T01:54:05.309Z,42.16
2019-01-13T01:55:05.296Z,41.25
2019-01-13T01:56:05.290Z,42.05
2019-01-13T01:57:05.276Z,41.85
2019-01-13T01:58:05.284Z,41.35
2019-01-13T01:59:05.256Z,41.24
2019-01-13T02:00:05.252Z,41.52
2019-01-13T02:01:05.238Z,40.71
2019-01-13T02:02:05.227Z,40.97
2019-01-13T02:03:05.240Z,39.78
2019-01-13T02:04:05.234Z,39.95
2019-01-13T02:05:05.200Z,39.65
2019-01-13T02:06:05.186Z,39.14
2019-01-13T02:07:05.173Z,38.74
2019-01-13T02:08:05.181Z,38.72
2019-01-13T02:09:05.153Z,38.72
2019-01-13T02:10:05.149Z,38.42
2019-01-13T02:11:05.133Z,37.82
2019-01-13T02:12:05.127Z,37.72
2019-01-13T02:13:05.129Z,37.92
2019-01-13T02:14:05.108Z,38.42
2019-01-13T02:15:05.098Z,38.52
2019-01-13T02:16:05.084Z,38.82
2019-01-13T02:17:05.072Z,38.62
2019-01-13T02:18:05.085Z,38.42
2019-01-13T02:19:05.053Z,38.42
2019-01-13T02:20:05.052Z,37.90
2019-01-13T02:21:05.037Z,37.70
2019-01-13T02:22:05.029Z,38.00
2019-01-13T02:23:05.040Z,38.00
2019-01-13T02:24:05.004Z,37.23
2019-01-13T02:25:04.986Z,37.90
2019-01-13T02:26:04.983Z,37.60
2019-01-13T02:27:04.965Z,37.30
2019-01-13T02:28:04.960Z,37.59
2019-01-13T02:29:04.965Z,37.60
2019-01-13T02:30:04.935Z,37.70
2019-01-13T02:31:04.937Z,37.51
2019-01-13T02:32:04.925Z,37.21
2019-01-13T02:33:04.912Z,37.60
2019-01-13T02:34:04.907Z,37.72
2019-01-13T02:35:04.881Z,38.42
2019-01-13T02:36:04.872Z,38.42
2019-01-13T02:37:04.866Z,38.32
2019-01-13T02:38:04.850Z,38.64
2019-01-13T02:39:04.859Z,38.16
2019-01-13T02:40:04.831Z,38.76
2019-01-13T02:41:04.822Z,39.36
2019-01-13T02:42:04.807Z,39.28
2019-01-13T02:43:04.803Z,39.48
2019-01-13T02:44:04.785Z,39.28
2019-01-13T02:45:04.794Z,39.67
2019-01-13T02:46:04.766Z,39.58
2019-01-13T02:47:04.752Z,40.09
2019-01-13T02:48:04.749Z,40.00
2019-01-13T02:49:04.733Z,39.79
2019-01-13T02:50:04.738Z,41.02
2019-01-13T02:51:04.715Z,40.91
2019-01-13T02:52:04.704Z,40.91
2019-01-13T02:53:04.697Z,41.02
2019-01-13T02:54:04.677Z,40.61
2019-01-13T02:55:04.707Z,40.61
2019-01-13T02:56:04.658Z,40.52
2019-01-13T02:57:04.652Z,40.71
2019-01-13T02:58:04.637Z,41.11
2019-01-13T02:59:04.620Z,41.02
2019-01-13T03:00:04.615Z,40.61
2019-01-13T03:01:04.619Z,41.02
2019-01-13T03:02:04.591Z,40.81
2019-01-13T03:03:04.586Z,41.02
2019-01-13T03:04:04.571Z,40.00
2019-01-13T03:05:04.559Z,40.00
2019-01-13T03:06:04.575Z,39.29
2019-01-13T03:07:04.539Z,39.98
2019-01-13T03:08:04.530Z,39.37
2019-01-13T03:09:04.517Z,38.85
2019-01-13T03:10:04.511Z,38.46
2019-01-13T03:11:04.516Z,38.64
2019-01-13T03:12:04.489Z,38.74
2019-01-13T03:13:04.476Z,37.64
2019-01-13T03:14:04.463Z,37.82
2019-01-13T03:15:04.453Z,37.64
2019-01-13T03:16:04.448Z,38.12
2019-01-13T03:17:04.452Z,37.32
2019-01-13T03:18:04.424Z,37.60
2019-01-13T03:19:04.415Z,37.72
2019-01-13T03:20:04.404Z,37.52
2019-01-13T03:21:04.396Z,37.62
2019-01-13T03:22:04.393Z,37.62
2019-01-13T03:23:04.372Z,38.12
2019-01-13T03:24:04.361Z,38.22
2019-01-13T03:25:04.349Z,37.82
2019-01-13T03:26:04.345Z,37.94
2019-01-13T03:27:04.353Z,38.24
2019-01-13T03:28:04.325Z,38.04
2019-01-13T03:29:04.307Z,38.24
2019-01-13T03:30:04.302Z,37.84
2019-01-13T03:31:12.197Z,38.14
2019-01-13T03:32:05.294Z,37.94
2019-01-13T03:33:04.266Z,37.74
2019-01-13T03:34:04.255Z,38.56
2019-01-13T03:35:04.239Z,38.66
2019-01-13T03:36:04.229Z,38.85
2019-01-13T03:37:04.228Z,38.38
2019-01-13T03:38:04.237Z,38.28
2019-01-13T03:39:04.196Z,38.18
2019-01-13T03:40:04.190Z,39.07
2019-01-13T03:41:04.175Z,39.18
2019-01-13T03:42:04.163Z,39.28
2019-01-13T03:43:04.171Z,39.18
2019-01-13T03:44:04.147Z,39.39
2019-01-13T03:45:04.135Z,39.28
2019-01-13T03:46:04.128Z,39.18
2019-01-13T03:47:04.120Z,39.28
2019-01-13T03:48:04.123Z,39.37
2019-01-13T03:49:04.086Z,39.37
2019-01-13T03:50:04.084Z,38.28
2019-01-13T03:51:04.067Z,38.36
2019-01-13T03:52:04.058Z,38.46
2019-01-13T03:53:04.074Z,38.56
2019-01-13T03:54:04.032Z,37.94
2019-01-13T03:55:04.024Z,38.04
2019-01-13T03:56:04.011Z,37.44
2019-01-13T03:57:03.999Z,37.64
2019-01-13T03:58:03.992Z,37.12
2019-01-13T03:59:04.004Z,37.44
2019-01-13T04:00:03.971Z,37.23
2019-01-13T04:01:03.966Z,37.72
2019-01-13T04:02:03.955Z,38.02
2019-01-13T04:03:03.938Z,37.82
2019-01-13T04:04:03.940Z,37.32
2019-01-13T04:05:03.922Z,37.82
2019-01-13T04:06:03.909Z,38.02
2019-01-13T04:07:03.898Z,37.42
2019-01-13T04:08:03.887Z,37.62
2019-01-13T04:09:03.892Z,37.42
2019-01-13T04:10:03.862Z,38.02
2019-01-13T04:11:03.847Z,38.04
2019-01-13T04:12:03.845Z,37.54
2019-01-13T04:13:03.836Z,37.94
2019-01-13T04:14:03.817Z,38.84
2019-01-13T04:15:03.839Z,38.46
2019-01-13T04:16:03.802Z,38.85
2019-01-13T04:17:03.784Z,38.26
2019-01-13T04:18:03.775Z,38.38
2019-01-13T04:19:03.763Z,38.87
2019-01-13T04:20:03.769Z,39.39
2019-01-13T04:21:03.752Z,40.08
2019-01-13T04:22:03.733Z,40.19
2019-01-13T04:23:03.722Z,39.69
2019-01-13T04:24:03.715Z,40.01
2019-01-13T04:25:03.731Z,39.81
2019-01-13T04:26:03.689Z,40.22
2019-01-13T04:27:03.690Z,40.41
2019-01-13T04:28:03.671Z,40.91
2019-01-13T04:29:03.659Z,40.71
2019-01-13T04:30:03.653Z,40.81
2019-01-13T04:31:03.645Z,40.43
2019-01-13T04:32:03.633Z,40.63
2019-01-13T04:33:03.625Z,40.61
2019-01-13T04:34:03.602Z,41.11
2019-01-13T04:35:03.605Z,40.91
2019-01-13T04:36:03.602Z,40.41
2019-01-13T04:37:03.582Z,39.79
2019-01-13T04:38:03.563Z,39.89
2019-01-13T04:39:03.556Z,40.37
2019-01-13T04:40:03.543Z,39.18
2019-01-13T04:41:03.558Z,39.15
2019-01-13T04:42:03.527Z,38.76
2019-01-13T04:43:03.513Z,38.64
2019-01-13T04:44:03.500Z,38.84
2019-01-13T04:45:03.489Z,37.84
2019-01-13T04:46:03.494Z,37.92
2019-01-13T04:47:03.477Z,38.34
2019-01-13T04:48:03.461Z,38.12
2019-01-13T04:49:03.456Z,38.12
2019-01-13T04:50:03.445Z,37.72
2019-01-13T04:51:03.451Z,38.04
2019-01-13T04:52:03.422Z,38.24
2019-01-13T04:53:03.411Z,38.22
2019-01-13T04:54:03.401Z,37.72
2019-01-13T04:55:03.396Z,38.22
2019-01-13T04:56:03.397Z,38.54
2019-01-13T04:57:03.366Z,38.54
2019-01-13T04:58:03.366Z,38.84
2019-01-13T04:59:03.346Z,38.44
2019-01-13T05:00:03.343Z,38.64
2019-01-13T05:01:03.358Z,38.34
2019-01-13T05:02:03.316Z,38.84
2019-01-13T05:03:03.308Z,38.44
2019-01-13T05:04:03.294Z,38.85
2019-01-13T05:05:03.284Z,38.36
2019-01-13T05:06:03.270Z,38.28
2019-01-13T05:07:03.281Z,38.68
2019-01-13T05:08:03.250Z,39.07
2019-01-13T05:09:03.237Z,39.09
2019-01-13T05:10:03.228Z,40.19
2019-01-13T05:11:03.216Z,39.69
2019-01-13T05:12:03.219Z,39.91
2019-01-13T05:13:03.192Z,39.81
2019-01-13T05:14:03.182Z,40.11
2019-01-13T05:15:03.177Z,40.22
2019-01-13T05:16:03.163Z,40.91
2019-01-13T05:17:03.170Z,40.91
2019-01-13T05:18:03.137Z,40.61
2019-01-13T05:19:03.131Z,40.61
2019-01-13T05:20:03.120Z,41.11
2019-01-13T05:21:03.108Z,41.11
2019-01-13T05:22:03.117Z,40.41
2019-01-13T05:23:03.091Z,39.79
2019-01-13T05:24:03.071Z,39.59
2019-01-13T05:25:03.070Z,39.48
2019-01-13T05:26:03.055Z,40.08
2019-01-13T05:27:03.055Z,39.65
2019-01-13T05:28:03.034Z,38.96
2019-01-13T05:29:03.023Z,38.64
2019-01-13T05:30:03.010Z,38.44
2019-01-13T05:31:03.000Z,37.94
2019-01-13T05:32:03.016Z,37.62
2019-01-13T05:33:02.977Z,37.21
2019-01-13T05:34:02.969Z,37.62
2019-01-13T05:35:02.962Z,37.40
2019-01-13T05:36:02.945Z,37.90
2019-01-13T05:37:02.932Z,37.51
2019-01-13T05:38:02.936Z,36.99
2019-01-13T05:39:02.918Z,37.29
2019-01-13T05:40:02.902Z,37.38
2019-01-13T05:41:02.895Z,37.38
2019-01-13T05:42:02.881Z,37.49
2019-01-13T05:43:02.888Z,37.01
2019-01-13T05:44:02.865Z,37.01
2019-01-13T05:45:02.855Z,36.71
2019-01-13T05:46:02.843Z,37.70
2019-01-13T05:47:02.834Z,38.00
2019-01-13T05:48:02.837Z,37.70
2019-01-13T05:49:02.813Z,37.62
2019-01-13T05:50:02.797Z,37.62
2019-01-13T05:51:02.789Z,37.30
2019-01-13T05:52:02.775Z,37.02
2019-01-13T05:53:02.786Z,37.32
2019-01-13T05:54:02.756Z,38.12
2019-01-13T05:55:02.743Z,37.72
2019-01-13T05:56:02.736Z,38.14
2019-01-13T05:57:02.726Z,38.24
2019-01-13T05:58:02.737Z,38.14
2019-01-13T05:59:02.715Z,38.66
2019-01-13T06:00:02.691Z,38.76
2019-01-13T06:01:02.687Z,38.46
2019-01-13T06:02:02.673Z,38.46
2019-01-13T06:03:02.674Z,38.36
2019-01-13T06:04:02.652Z,38.28
2019-01-13T06:05:02.642Z,39.18
2019-01-13T06:06:02.630Z,38.87
2019-01-13T06:07:02.626Z,39.78
2019-01-13T06:08:02.628Z,40.09
2019-01-13T06:09:02.599Z,39.89
2019-01-13T06:10:02.587Z,40.09
2019-01-13T06:11:02.582Z,39.39
2019-01-13T06:12:02.571Z,39.89
2019-01-13T06:13:02.570Z,39.51
2019-01-13T06:14:02.555Z,39.81
2019-01-13T06:15:02.541Z,39.81
2019-01-13T06:16:02.540Z,39.91
2019-01-13T06:17:02.519Z,40.01
2019-01-13T06:18:02.516Z,41.02
2019-01-13T06:19:02.504Z,40.31
2019-01-13T06:20:02.485Z,40.11
2019-01-13T06:21:02.507Z,40.01
2019-01-13T06:22:02.462Z,39.51
2019-01-13T06:23:02.467Z,40.09
2019-01-13T06:24:02.448Z,39.50
2019-01-13T06:25:02.445Z,39.69
2019-01-13T06:26:02.423Z,39.79
2019-01-13T06:27:02.417Z,40.00
2019-01-13T06:28:02.423Z,39.59
2019-01-13T06:29:02.390Z,39.89
2019-01-13T06:30:02.378Z,39.69
2019-01-13T06:31:02.374Z,39.59
2019-01-13T06:32:02.358Z,39.87
2019-01-13T06:33:02.360Z,39.58
2019-01-13T06:34:02.335Z,39.37
2019-01-13T06:35:02.325Z,40.08
2019-01-13T06:36:02.310Z,39.86
2019-01-13T06:37:02.305Z,39.26
2019-01-13T06:38:02.311Z,39.56
2019-01-13T06:39:02.279Z,39.06
2019-01-13T06:40:02.276Z,39.15
2019-01-13T06:41:02.262Z,39.36
2019-01-13T06:42:02.249Z,39.36
2019-01-13T06:43:02.237Z,38.76
2019-01-13T06:44:02.242Z,39.56
2019-01-13T06:45:02.212Z,39.26
2019-01-13T06:46:02.219Z,39.36
2019-01-13T06:47:02.211Z,39.46
2019-01-13T06:48:02.187Z,39.56
2019-01-13T06:49:02.184Z,39.95
2019-01-13T06:50:02.168Z,39.86
2019-01-13T06:51:02.151Z,39.87
2019-01-13T06:52:02.137Z,39.67
2019-01-13T06:53:02.126Z,39.37
2019-01-13T06:54:02.131Z,39.87
2019-01-13T06:55:02.106Z,39.48
2019-01-13T06:56:02.101Z,39.48
2019-01-13T06:57:02.082Z,39.50
2019-01-13T06:58:02.076Z,40.00
2019-01-13T06:59:02.081Z,39.98
2019-01-13T07:00:02.065Z,39.50
2019-01-13T07:01:02.044Z,39.78
2019-01-13T07:02:03.421Z,39.48
2019-01-13T07:03:02.023Z,39.78
2019-01-13T07:04:02.047Z,39.67
2019-01-13T07:05:02.003Z,39.58
2019-01-13T07:06:01.989Z,39.58
2019-01-13T07:07:01.984Z,39.58
2019-01-13T07:08:01.973Z,40.17
2019-01-13T07:09:01.956Z,40.16
2019-01-13T07:10:01.969Z,39.46
2019-01-13T07:11:01.947Z,39.65
2019-01-13T07:12:01.930Z,39.76
2019-01-13T07:13:01.919Z,40.75
2019-01-13T07:14:01.903Z,40.45
2019-01-13T07:15:01.906Z,40.64
2019-01-13T07:16:01.882Z,40.14
2019-01-13T07:17:01.875Z,40.64
2019-01-13T07:18:01.859Z,41.14
2019-01-13T07:19:01.855Z,40.73
2019-01-13T07:20:01.857Z,41.25
2019-01-13T07:21:01.847Z,41.36
2019-01-13T07:22:01.821Z,41.16
2019-01-13T07:23:01.812Z,41.47
2019-01-13T07:24:01.805Z,41.88
2019-01-13T07:25:01.798Z,41.97
2019-01-13T07:26:01.781Z,41.99
2019-01-13T07:27:01.773Z,41.60
2019-01-13T07:28:01.764Z,41.89
2019-01-13T07:29:01.739Z,42.61
2019-01-13T07:30:01.818Z,42.41
2019-01-13T07:31:01.724Z,42.41
2019-01-13T07:32:01.716Z,42.32
2019-01-13T07:33:01.699Z,43.43
2019-01-13T07:34:01.685Z,43.54
2019-01-13T07:35:01.674Z,43.63
2019-01-13T07:36:01.679Z,44.64
2019-01-13T07:37:01.656Z,44.54
2019-01-13T07:38:01.649Z,44.74
2019-01-13T07:39:01.644Z,45.54
2019-01-13T07:40:01.632Z,45.46
2019-01-13T07:41:01.629Z,45.76
2019-01-13T07:42:01.600Z,45.66
2019-01-13T07:43:01.586Z,46.16
2019-01-13T07:44:01.584Z,45.86
2019-01-13T07:45:01.581Z,45.36
2019-01-13T07:46:01.569Z,45.04
2019-01-13T07:47:01.547Z,45.56
2019-01-13T07:48:01.543Z,45.46
2019-01-13T07:49:01.530Z,45.04
2019-01-13T07:50:01.525Z,45.66
2019-01-13T07:51:01.519Z,45.46
2019-01-13T07:52:01.496Z,45.76
2019-01-13T07:53:01.483Z,45.84
2019-01-13T07:54:01.477Z,44.35
2019-01-13T07:55:01.474Z,43.85
2019-01-13T07:56:01.470Z,42.16
2019-01-13T07:57:01.445Z,44.18
2019-01-13T07:58:01.435Z,43.55
2019-01-13T07:59:01.426Z,44.18
2019-01-13T08:00:01.412Z,44.78
2019-01-13T08:01:01.423Z,44.16
2019-01-13T08:02:01.399Z,43.85
2019-01-13T08:03:01.387Z,43.55
2019-01-13T08:04:01.371Z,43.96
2019-01-13T08:05:01.363Z,43.35
2019-01-13T08:06:01.367Z,43.35
2019-01-13T08:07:01.342Z,43.85
2019-01-13T08:08:01.330Z,43.74
2019-01-13T08:09:01.323Z,42.74
2019-01-13T08:10:01.320Z,42.43
2019-01-13T08:11:01.318Z,42.24
2019-01-13T08:12:01.291Z,42.13
2019-01-13T08:13:01.289Z,42.83
2019-01-13T08:14:01.270Z,42.63
2019-01-13T08:15:01.262Z,42.43
2019-01-13T08:16:01.263Z,42.74
2019-01-13T08:17:01.242Z,42.63
2019-01-13T08:18:01.231Z,42.13
2019-01-13T08:19:01.219Z,42.43
2019-01-13T08:20:01.213Z,42.13
2019-01-13T08:21:01.213Z,42.74
2019-01-13T08:22:01.189Z,43.35
2019-01-13T08:23:01.180Z,42.35
2019-01-13T08:24:01.174Z,43.04
2019-01-13T08:25:01.165Z,42.43
2019-01-13T08:26:01.182Z,42.05
2019-01-13T08:27:01.144Z,42.46
2019-01-13T08:28:01.129Z,42.25
2019-01-13T08:29:01.119Z,43.05
2019-01-13T08:30:01.109Z,43.26
2019-01-13T08:31:01.120Z,43.96
2019-01-13T08:32:01.086Z,42.16
2019-01-13T08:33:01.075Z,42.43
2019-01-13T08:34:01.070Z,42.83
2019-01-13T08:35:01.055Z,41.82
2019-01-13T08:36:01.044Z,41.41
2019-01-13T08:37:01.053Z,42.02
2019-01-13T08:38:01.032Z,41.80
2019-01-13T08:39:01.020Z,41.39
2019-01-13T08:40:01.002Z,40.97
2019-01-13T08:41:00.994Z,40.99
2019-01-13T08:42:00.994Z,41.17
2019-01-13T08:43:00.973Z,40.47
2019-01-13T08:44:00.958Z,40.28
2019-01-13T08:45:00.960Z,40.45
2019-01-13T08:46:00.940Z,40.66
2019-01-13T08:47:00.946Z,40.86
2019-01-13T08:48:00.928Z,40.86
2019-01-13T08:49:00.907Z,41.16
2019-01-13T08:50:00.899Z,40.95
2019-01-13T08:51:00.887Z,40.36
2019-01-13T08:52:00.890Z,41.16
2019-01-13T08:53:00.865Z,40.95
2019-01-13T08:54:00.855Z,40.25
2019-01-13T08:55:00.846Z,40.86
2019-01-13T08:56:00.833Z,40.78
2019-01-13T08:57:00.832Z,40.28
2019-01-13T08:58:00.811Z,41.08
2019-01-13T08:59:00.804Z,40.37
2019-01-13T09:00:00.784Z,40.28
2019-01-13T09:01:00.774Z,41.47
2019-01-13T09:02:00.776Z,40.39
2019-01-13T09:03:00.762Z,40.80
2019-01-13T09:04:00.745Z,41.47
2019-01-13T09:05:00.739Z,41.49
2019-01-13T09:06:00.722Z,41.49
2019-01-13T09:07:00.726Z,41.38
2019-01-13T09:08:00.702Z,40.19
2019-01-13T09:09:00.692Z,41.60
2019-01-13T09:10:00.678Z,40.99
2019-01-13T09:11:00.671Z,40.59
2019-01-13T09:12:00.678Z,41.09
2019-01-13T09:13:00.651Z,41.49
2019-01-13T09:14:00.632Z,41.19
2019-01-13T09:15:00.637Z,40.78
2019-01-13T09:16:00.614Z,40.17
2019-01-13T09:17:00.615Z,40.37
2019-01-13T09:18:00.590Z,40.58
2019-01-13T09:19:00.578Z,40.47
2019-01-13T09:20:00.570Z,40.78
2019-01-13T09:21:00.559Z,40.88
2019-01-13T09:22:00.563Z,40.88
2019-01-13T09:23:00.540Z,40.16
2019-01-13T09:24:00.526Z,40.45
2019-01-13T09:25:00.554Z,39.86
2019-01-13T09:26:00.513Z,40.16
2019-01-13T09:27:00.512Z,39.76
2019-01-13T09:28:00.486Z,39.46
2019-01-13T09:29:00.483Z,39.95
2019-01-13T09:30:00.471Z,39.87
2019-01-13T09:31:00.456Z,41.17
2019-01-13T09:32:00.477Z,40.58
2019-01-13T09:33:00.506Z,40.59
2019-01-13T09:34:00.429Z,40.89
2019-01-13T09:35:00.414Z,40.81
2019-01-13T09:36:00.414Z,40.81
2019-01-13T09:37:00.394Z,41.71
2019-01-13T09:38:00.404Z,41.24
2019-01-13T09:39:00.373Z,41.24
2019-01-13T09:40:00.363Z,41.25
2019-01-13T09:41:00.346Z,42.16
2019-01-13T09:42:00.338Z,41.05
2019-01-13T09:43:00.355Z,41.55
2019-01-13T09:44:00.323Z,41.55
2019-01-13T09:45:00.329Z,41.85
2019-01-13T09:46:00.297Z,41.67
2019-01-13T09:47:00.286Z,42.18
2019-01-13T09:48:00.285Z,41.77
2019-01-13T09:49:00.264Z,42.88
2019-01-13T09:50:00.265Z,42.68
2019-01-13T09:51:00.241Z,42.88
2019-01-13T09:52:00.232Z,42.49
2019-01-13T09:53:00.243Z,42.10
2019-01-13T09:54:00.208Z,43.70
2019-01-13T09:55:00.199Z,43.50
2019-01-13T09:56:00.191Z,43.70
2019-01-13T09:57:00.187Z,43.18
2019-01-13T09:58:00.172Z,42.18
2019-01-13T09:59:00.178Z,42.66
2019-01-13T10:00:00.266Z,41.43
2019-01-13T10:01:00.138Z,41.52
2019-01-13T10:02:00.136Z,41.30
2019-01-13T10:03:00.137Z,40.30
2019-01-13T10:04:00.142Z,40.08
2019-01-13T10:05:00.166Z,39.86
2019-01-13T10:06:00.089Z,39.95
2019-01-13T10:07:00.076Z,39.94
2019-01-13T10:08:00.071Z,39.43
2019-01-13T10:09:00.083Z,39.02
2019-01-13T10:10:00.057Z,38.22
2019-01-13T10:11:00.066Z,38.32
2019-01-13T10:12:00.024Z,38.42
2019-01-13T10:13:00.060Z,38.40
2019-01-13T10:14:00.009Z,38.80
2019-01-13T10:15:00.001Z,38.80
2019-01-13T10:15:59.986Z,38.62
2019-01-13T10:16:59.969Z,38.42
2019-01-13T10:17:59.968Z,38.32
2019-01-13T10:18:59.957Z,38.52
2019-01-13T10:19:59.961Z,38.82
2019-01-13T10:20:59.927Z,38.14
2019-01-13T10:21:59.919Z,39.14
2019-01-13T10:22:59.911Z,39.64
2019-01-13T10:23:59.915Z,39.24
2019-01-13T10:24:59.893Z,39.04
2019-01-13T10:25:59.890Z,39.34
2019-01-13T10:27:00.268Z,39.14
2019-01-13T10:27:59.857Z,39.34
2019-01-13T10:28:59.849Z,38.92
2019-01-13T10:29:59.832Z,39.12
2019-01-13T10:31:03.277Z,38.12
2019-01-13T10:31:59.808Z,38.22
2019-01-13T10:32:59.805Z,38.72
2019-01-13T10:33:59.784Z,38.32
2019-01-13T10:34:59.778Z,38.32
2019-01-13T10:35:59.831Z,38.52
2019-01-13T10:36:59.756Z,38.62
2019-01-13T10:37:59.788Z,38.82
2019-01-13T10:38:59.730Z,38.52
2019-01-13T10:39:59.726Z,38.60
2019-01-13T10:40:59.728Z,38.72
2019-01-13T10:41:59.700Z,38.62
2019-01-13T10:42:59.691Z,38.12
2019-01-13T10:43:59.689Z,38.44
2019-01-13T10:44:59.668Z,38.52
2019-01-13T10:45:59.676Z,38.54
2019-01-13T10:46:59.647Z,38.22
2019-01-13T10:47:59.672Z,39.54
2019-01-13T10:48:59.641Z,39.24
2019-01-13T10:49:59.620Z,39.34
2019-01-13T10:50:59.632Z,39.43
2019-01-13T10:51:59.602Z,39.24
2019-01-13T10:52:59.584Z,39.65
2019-01-13T10:53:59.580Z,39.56
2019-01-13T10:54:59.568Z,39.86
2019-01-13T10:55:59.575Z,39.46
2019-01-13T10:56:59.579Z,39.95
2019-01-13T10:57:59.534Z,39.78
2019-01-13T10:58:59.521Z,39.78
2019-01-13T10:59:59.514Z,39.67
2019-01-13T11:00:59.501Z,40.47
2019-01-13T11:01:59.536Z,40.67
2019-01-13T11:03:02.390Z,40.39
2019-01-13T11:03:59.467Z,39.50
2019-01-13T11:04:59.453Z,40.81
2019-01-13T11:05:59.449Z,40.80
2019-01-13T11:06:59.439Z,40.41
2019-01-13T11:07:59.433Z,41.52
2019-01-13T11:08:59.408Z,41.53
2019-01-13T11:09:59.425Z,41.43
2019-01-13T11:10:59.387Z,41.15
2019-01-13T11:11:59.387Z,41.55
2019-01-13T11:12:59.381Z,41.35
2019-01-13T11:13:59.354Z,41.66
2019-01-13T11:14:59.343Z,41.75
2019-01-13T11:15:59.338Z,40.95
2019-01-13T11:16:59.327Z,41.66
2019-01-13T11:17:59.326Z,40.95
2019-01-13T11:18:59.305Z,41.88
2019-01-13T11:19:59.295Z,41.88
2019-01-13T11:20:59.287Z,42.27
2019-01-13T11:21:59.276Z,42.68
2019-01-13T11:22:59.287Z,41.67
2019-01-13T11:23:59.251Z,42.88
2019-01-13T11:24:59.235Z,42.47
2019-01-13T11:25:59.236Z,42.46
2019-01-13T11:26:59.213Z,41.85
2019-01-13T11:27:59.216Z,42.13
2019-01-13T11:28:59.224Z,41.83
2019-01-13T11:29:59.188Z,41.61
2019-01-13T11:30:59.182Z,41.39
2019-01-13T11:31:59.161Z,40.30
2019-01-13T11:32:59.196Z,40.89
2019-01-13T11:33:59.178Z,40.67
2019-01-13T11:34:59.138Z,39.78
2019-01-13T11:35:59.119Z,40.06
2019-01-13T11:36:59.109Z,39.36
2019-01-13T11:37:59.108Z,39.86
2019-01-13T11:38:59.125Z,39.84
2019-01-13T11:39:59.088Z,38.36
2019-01-13T11:40:59.083Z,39.95
2019-01-13T11:41:59.059Z,39.65
2019-01-13T11:42:59.050Z,39.76
2019-01-13T11:43:59.040Z,39.65
2019-01-13T11:44:59.091Z,39.46
2019-01-13T11:45:59.017Z,39.76
2019-01-13T11:46:59.013Z,39.65
2019-01-13T11:47:59.003Z,39.65
2019-01-13T11:48:58.986Z,39.65
2019-01-13T11:49:58.989Z,39.98
2019-01-13T11:50:58.969Z,39.76
2019-01-13T11:51:58.958Z,40.17
2019-01-13T11:52:58.953Z,40.06
2019-01-13T11:53:58.942Z,40.88
2019-01-13T11:54:58.953Z,41.58
2019-01-13T11:55:58.918Z,41.97
2019-01-13T11:56:58.905Z,42.40
2019-01-13T11:57:58.896Z,43.40
2019-01-13T11:58:58.884Z,43.07
2019-01-13T11:59:58.970Z,43.79
2019-01-13T12:00:58.878Z,43.29
2019-01-13T12:01:58.863Z,44.12
2019-01-13T12:02:58.848Z,43.91
2019-01-13T12:03:58.835Z,44.12
2019-01-13T12:04:58.822Z,44.71
2019-01-13T12:05:58.823Z,43.82
2019-01-13T12:06:58.797Z,44.51
2019-01-13T12:07:58.805Z,44.82
2019-01-13T12:08:58.871Z,44.34
2019-01-13T12:09:58.777Z,44.24
2019-01-13T12:10:58.772Z,43.84
2019-01-13T12:11:58.748Z,45.43
2019-01-13T12:12:58.743Z,45.74
2019-01-13T12:13:58.727Z,45.86
2019-01-13T12:14:58.717Z,45.46
2019-01-13T12:15:58.726Z,45.46
2019-01-13T12:16:58.699Z,45.96
2019-01-13T12:17:58.693Z,45.66
2019-01-13T12:18:58.675Z,46.46
2019-01-13T12:19:58.675Z,45.46
2019-01-13T12:20:58.688Z,45.56
2019-01-13T12:21:58.645Z,45.16
2019-01-13T12:22:58.636Z,45.16
2019-01-13T12:23:58.625Z,46.06
2019-01-13T12:24:58.616Z,45.48
2019-01-13T12:25:58.621Z,45.36
2019-01-13T12:26:58.606Z,46.48
2019-01-13T12:27:58.588Z,46.46
2019-01-13T12:28:58.589Z,45.08
2019-01-13T12:29:58.604Z,45.88
2019-01-13T12:30:58.598Z,43.98
2019-01-13T12:31:58.573Z,44.28
2019-01-13T12:32:58.533Z,45.28
2019-01-13T12:33:58.519Z,45.68
2019-01-13T12:34:58.545Z,46.28
2019-01-13T12:35:58.514Z,46.48
2019-01-13T12:36:58.504Z,47.28
2019-01-13T12:37:58.481Z,46.38
2019-01-13T12:38:58.467Z,46.11
2019-01-13T12:39:58.465Z,45.90
2019-01-13T12:41:00.113Z,46.11
2019-01-13T12:41:58.451Z,46.70
2019-01-13T12:42:58.430Z,47.31
2019-01-13T12:43:58.420Z,47.81
2019-01-13T12:44:58.410Z,48.31
2019-01-13T12:45:58.407Z,48.71
2019-01-13T12:46:58.402Z,48.51
2019-01-13T12:47:58.373Z,47.81
2019-01-13T12:48:58.371Z,48.31
2019-01-13T12:49:58.358Z,47.19
2019-01-13T12:50:58.340Z,47.58
2019-01-13T12:51:58.362Z,47.49